sensor_id;sensor_type;location;lat;lon;timestamp;pressure;altitude;pressure_sealevel;temperature;humidity
57656;BME280;43482;53.334;6.744;2022-08-19T00:01:43;101386.56;;;15.30;100.00
57656;BME280;43482;53.334;6.744;2022-08-19T00:04:11;101393.41;;;15.25;100.00
57656;BME280;43482;53.334;6.744;2022-08-19T00:06:39;101391.72;;;15.23;100.00
57656;BME280;43482;53.334;6.744;2022-08-19T00:09:09;101388.75;;;15.27;100.00
57656;BME280;43482;53.334;6.744;2022-08-19T00:11:36;101388.56;;;15.28;100.00
57656;BME280;43482;53.334;6.744;2022-08-19T00:14:03;101379.25;;;15.24;100.00
57656;BME280;43482;53.334;6.744;2022-08-19T00:16:29;101367.78;;;15.15;100.00
57656;BME280;43482;53.334;6.744;2022-08-19T00:18:54;101376.78;;;15.22;100.00
57656;BME280;43482;53.334;6.744;2022-08-19T00:21:23;101389.06;;;15.23;100.00
57656;BME280;43482;53.334;6.744;2022-08-19T00:23:49;101379.09;;;15.17;100.00
57656;BME280;43482;53.334;6.744;2022-08-19T00:26:15;101393.72;;;15.30;100.00
57656;BME280;43482;53.334;6.744;2022-08-19T00:28:40;101382.25;;;15.29;100.00
57656;BME280;43482;53.334;6.744;2022-08-19T00:31:07;101383.06;;;15.30;100.00
57656;BME280;43482;53.334;6.744;2022-08-19T00:33:33;101380.75;;;15.27;100.00
57656;BME280;43482;53.334;6.744;2022-08-19T00:36:00;101384.41;;;15.26;100.00
57656;BME280;43482;53.334;6.744;2022-08-19T00:38:25;101378.78;;;15.29;100.00
57656;BME280;43482;53.334;6.744;2022-08-19T00:40:52;101367.47;;;15.27;100.00
57656;BME280;43482;53.334;6.744;2022-08-19T00:43:23;101366.44;;;15.28;100.00
57656;BME280;43482;53.334;6.744;2022-08-19T00:45:49;101357.31;;;15.22;100.00
57656;BME280;43482;53.334;6.744;2022-08-19T00:48:16;101354.19;;;15.18;100.00
57656;BME280;43482;53.334;6.744;2022-08-19T00:50:43;101367.47;;;15.27;100.00
57656;BME280;43482;53.334;6.744;2022-08-19T00:53:15;101355.16;;;15.17;100.00
57656;BME280;43482;53.334;6.744;2022-08-19T00:55:45;101362.31;;;15.25;100.00
57656;BME280;43482;53.334;6.744;2022-08-19T00:58:15;101365.94;;;15.24;100.00
57656;BME280;43482;53.334;6.744;2022-08-19T01:00:41;101362.16;;;15.18;100.00
57656;BME280;43482;53.334;6.744;2022-08-19T01:03:10;101365.47;;;15.20;100.00
57656;BME280;43482;53.334;6.744;2022-08-19T01:05:36;101367.94;;;15.22;100.00
57656;BME280;43482;53.334;6.744;2022-08-19T01:08:04;101366.28;;;15.21;100.00
57656;BME280;43482;53.334;6.744;2022-08-19T01:10:33;101353.81;;;15.21;100.00
57656;BME280;43482;53.334;6.744;2022-08-19T01:13:01;101347.53;;;15.14;100.00
57656;BME280;43482;53.334;6.744;2022-08-19T01:15:31;101349.88;;;15.09;100.00
57656;BME280;43482;53.334;6.744;2022-08-19T01:18:04;101346.69;;;15.06;100.00
57656;BME280;43482;53.334;6.744;2022-08-19T01:20:30;101326.25;;;14.98;100.00
57656;BME280;43482;53.334;6.744;2022-08-19T01:22:57;101335.56;;;15.02;100.00
57656;BME280;43482;53.334;6.744;2022-08-19T01:25:30;101339.06;;;14.94;100.00
57656;BME280;43482;53.334;6.744;2022-08-19T01:27:56;101344.53;;;14.93;100.00
57656;BME280;43482;53.334;6.744;2022-08-19T01:30:26;101334.75;;;14.93;100.00
57656;BME280;43482;53.334;6.744;2022-08-19T01:32:52;101335.59;;;14.86;100.00
57656;BME280;43482;53.334;6.744;2022-08-19T01:35:19;101314.81;;;14.65;100.00
57656;BME280;43482;53.334;6.744;2022-08-19T01:37:51;101316.97;;;14.61;100.00
57656;BME280;43482;53.334;6.744;2022-08-19T01:40:18;101333.56;;;14.71;100.00
57656;BME280;43482;53.334;6.744;2022-08-19T01:42:49;101346.03;;;14.71;100.00
57656;BME280;43482;53.334;6.744;2022-08-19T01:45:15;101353.84;;;14.72;100.00
57656;BME280;43482;53.334;6.744;2022-08-19T01:47:41;101350.19;;;14.73;100.00
57656;BME280;43482;53.334;6.744;2022-08-19T01:50:08;101335.75;;;14.59;100.00
57656;BME280;43482;53.334;6.744;2022-08-19T01:52:38;101353.19;;;14.70;100.00
57656;BME280;43482;53.334;6.744;2022-08-19T01:55:05;101350.69;;;14.69;100.00
57656;BME280;43482;53.334;6.744;2022-08-19T01:57:32;101344.53;;;14.68;100.00
57656;BME280;43482;53.334;6.744;2022-08-19T01:59:58;101345.53;;;14.67;100.00
57656;BME280;43482;53.334;6.744;2022-08-19T02:02:24;101342.19;;;14.65;100.00
57656;BME280;43482;53.334;6.744;2022-08-19T02:04:50;101348.00;;;14.60;100.00
57656;BME280;43482;53.334;6.744;2022-08-19T02:07:19;101335.53;;;14.53;100.00
57656;BME280;43482;53.334;6.744;2022-08-19T02:09:44;101351.00;;;14.57;100.00
57656;BME280;43482;53.334;6.744;2022-08-19T02:12:10;101360.13;;;14.55;100.00
57656;BME280;43482;53.334;6.744;2022-08-19T02:14:36;101359.75;;;14.50;100.00
57656;BME280;43482;53.334;6.744;2022-08-19T02:17:02;101364.06;;;14.43;100.00
57656;BME280;43482;53.334;6.744;2022-08-19T02:19:27;101360.06;;;14.38;100.00
57656;BME280;43482;53.334;6.744;2022-08-19T02:21:53;101352.72;;;14.32;100.00
57656;BME280;43482;53.334;6.744;2022-08-19T02:24:18;101347.44;;;14.32;100.00
57656;BME280;43482;53.334;6.744;2022-08-19T02:26:43;101358.06;;;14.40;100.00
57656;BME280;43482;53.334;6.744;2022-08-19T02:29:09;101354.44;;;14.42;100.00
57656;BME280;43482;53.334;6.744;2022-08-19T02:31:34;101359.41;;;14.45;100.00
57656;BME280;43482;53.334;6.744;2022-08-19T02:34:00;101364.38;;;14.48;100.00
57656;BME280;43482;53.334;6.744;2022-08-19T02:36:26;101362.41;;;14.50;100.00
57656;BME280;43482;53.334;6.744;2022-08-19T02:38:52;101370.22;;;14.51;100.00
57656;BME280;43482;53.334;6.744;2022-08-19T02:41:21;101366.75;;;14.51;100.00
57656;BME280;43482;53.334;6.744;2022-08-19T02:43:46;101373.38;;;14.47;100.00
57656;BME280;43482;53.334;6.744;2022-08-19T02:46:23;101353.59;;;14.33;100.00
57656;BME280;43482;53.334;6.744;2022-08-19T02:48:53;101362.72;;;14.38;100.00
57656;BME280;43482;53.334;6.744;2022-08-19T02:51:25;101363.34;;;14.32;100.00
57656;BME280;43482;53.334;6.744;2022-08-19T02:53:50;101360.22;;;14.29;100.00
57656;BME280;43482;53.334;6.744;2022-08-19T02:56:16;101365.69;;;14.27;100.00
57656;BME280;43482;53.334;6.744;2022-08-19T02:58:42;101367.50;;;14.27;100.00
57656;BME280;43482;53.334;6.744;2022-08-19T03:01:09;101363.50;;;14.23;100.00
57656;BME280;43482;53.334;6.744;2022-08-19T03:03:35;101371.78;;;14.19;100.00
57656;BME280;43482;53.334;6.744;2022-08-19T03:06:12;101369.97;;;14.20;100.00
57656;BME280;43482;53.334;6.744;2022-08-19T03:08:40;101368.16;;;14.20;100.00
57656;BME280;43482;53.334;6.744;2022-08-19T03:11:10;101365.34;;;14.22;100.00
57656;BME280;43482;53.334;6.744;2022-08-19T03:13:37;101358.69;;;14.26;100.00
57656;BME280;43482;53.334;6.744;2022-08-19T03:16:04;101346.75;;;14.22;100.00
57656;BME280;43482;53.334;6.744;2022-08-19T03:18:30;101335.78;;;14.17;100.00
57656;BME280;43482;53.334;6.744;2022-08-19T03:20:56;101354.91;;;14.29;100.00
57656;BME280;43482;53.334;6.744;2022-08-19T03:23:22;101355.72;;;14.29;100.00
57656;BME280;43482;53.334;6.744;2022-08-19T03:25:49;101333.94;;;14.17;100.00
57656;BME280;43482;53.334;6.744;2022-08-19T03:28:15;101338.28;;;14.18;100.00
57656;BME280;43482;53.334;6.744;2022-08-19T03:30:42;101339.47;;;14.24;100.00
57656;BME280;43482;53.334;6.744;2022-08-19T03:33:09;101335.09;;;14.15;100.00
57656;BME280;43482;53.334;6.744;2022-08-19T03:35:35;101349.38;;;14.14;100.00
57656;BME280;43482;53.334;6.744;2022-08-19T03:38:04;101352.53;;;14.09;100.00
57656;BME280;43482;53.334;6.744;2022-08-19T03:40:30;101352.47;;;14.01;100.00
57656;BME280;43482;53.334;6.744;2022-08-19T03:42:56;101356.97;;;14.01;100.00
57656;BME280;43482;53.334;6.744;2022-08-19T03:45:22;101353.31;;;14.02;100.00
57656;BME280;43482;53.334;6.744;2022-08-19T03:47:48;101344.34;;;13.94;100.00
57656;BME280;43482;53.334;6.744;2022-08-19T03:50:13;101355.13;;;14.01;100.00
57656;BME280;43482;53.334;6.744;2022-08-19T03:52:39;101351.66;;;14.01;100.00
57656;BME280;43482;53.334;6.744;2022-08-19T03:55:05;101358.28;;;13.96;100.00
57656;BME280;43482;53.334;6.744;2022-08-19T03:57:30;101345.97;;;13.87;100.00
57656;BME280;43482;53.334;6.744;2022-08-19T03:59:56;101364.56;;;13.95;100.00
57656;BME280;43482;53.334;6.744;2022-08-19T04:02:21;101369.38;;;14.00;100.00
57656;BME280;43482;53.334;6.744;2022-08-19T04:04:47;101344.63;;;13.91;100.00
57656;BME280;43482;53.334;6.744;2022-08-19T04:07:14;101361.13;;;14.03;100.00
57656;BME280;43482;53.334;6.744;2022-08-19T04:09:46;101355.13;;;14.01;100.00
57656;BME280;43482;53.334;6.744;2022-08-19T04:12:12;101358.47;;;14.03;100.00
57656;BME280;43482;53.334;6.744;2022-08-19T04:14:37;101360.28;;;14.03;100.00
57656;BME280;43482;53.334;6.744;2022-08-19T04:17:03;101351.13;;;13.97;100.00
57656;BME280;43482;53.334;6.744;2022-08-19T04:19:36;101353.13;;;13.95;100.00
57656;BME280;43482;53.334;6.744;2022-08-19T04:22:02;101353.13;;;13.95;100.00
57656;BME280;43482;53.334;6.744;2022-08-19T04:24:29;101345.97;;;13.95;100.00
57656;BME280;43482;53.334;6.744;2022-08-19T04:26:54;101336.34;;;13.86;100.00
57656;BME280;43482;53.334;6.744;2022-08-19T04:29:22;101321.22;;;13.78;100.00
57656;BME280;43482;53.334;6.744;2022-08-19T04:31:50;101356.78;;;13.94;100.00
57656;BME280;43482;53.334;6.744;2022-08-19T04:34:18;101360.56;;;13.91;100.00
57656;BME280;43482;53.334;6.744;2022-08-19T04:36:47;101359.91;;;13.89;100.00
57656;BME280;43482;53.334;6.744;2022-08-19T04:39:18;101336.28;;;13.78;100.00
57656;BME280;43482;53.334;6.744;2022-08-19T04:41:44;101356.25;;;13.90;100.00
57656;BME280;43482;53.334;6.744;2022-08-19T04:44:33;101352.59;;;13.91;100.00
57656;BME280;43482;53.334;6.744;2022-08-19T04:46:59;101353.94;;;13.95;100.00
57656;BME280;43482;53.334;6.744;2022-08-19T04:49:25;101351.13;;;13.97;100.00
57656;BME280;43482;53.334;6.744;2022-08-19T04:51:52;101354.97;;;14.03;100.00
57656;BME280;43482;53.334;6.744;2022-08-19T04:54:19;101337.72;;;13.98;100.00
57656;BME280;43482;53.334;6.744;2022-08-19T04:56:49;101345.03;;;14.13;100.00
57656;BME280;43482;53.334;6.744;2022-08-19T04:59:16;101342.75;;;14.18;100.00
57656;BME280;43482;53.334;6.744;2022-08-19T05:01:42;101338.78;;;14.22;100.00
57656;BME280;43482;53.334;6.744;2022-08-19T05:04:08;101340.97;;;14.27;100.00
57656;BME280;43482;53.334;6.744;2022-08-19T05:06:35;101336.13;;;14.30;100.00
57656;BME280;43482;53.334;6.744;2022-08-19T05:09:04;101349.78;;;14.35;100.00
57656;BME280;43482;53.334;6.744;2022-08-19T05:11:33;101345.97;;;14.38;100.00
57656;BME280;43482;53.334;6.744;2022-08-19T05:13:59;101342.47;;;14.37;100.00
57656;BME280;43482;53.334;6.744;2022-08-19T05:16:25;101346.47;;;14.50;100.00
57656;BME280;43482;53.334;6.744;2022-08-19T05:18:52;101341.16;;;14.50;100.00
57656;BME280;43482;53.334;6.744;2022-08-19T05:21:53;101329.03;;;14.39;100.00
57656;BME280;43482;53.334;6.744;2022-08-19T05:24:38;101345.63;;;14.41;100.00
57656;BME280;43482;53.334;6.744;2022-08-19T05:27:03;101340.16;;;14.43;100.00
57656;BME280;43482;53.334;6.744;2022-08-19T05:29:31;101347.63;;;14.47;100.00
57656;BME280;43482;53.334;6.744;2022-08-19T05:31:58;101362.97;;;14.62;100.00
57656;BME280;43482;53.334;6.744;2022-08-19T05:34:25;101348.19;;;14.67;100.00
57656;BME280;43482;53.334;6.744;2022-08-19T05:36:54;101346.88;;;14.79;100.00
57656;BME280;43482;53.334;6.744;2022-08-19T05:39:23;101330.59;;;14.82;100.00
57656;BME280;43482;53.334;6.744;2022-08-19T05:41:53;101313.00;;;14.81;100.00
57656;BME280;43482;53.334;6.744;2022-08-19T05:44:19;101327.28;;;14.97;100.00
57656;BME280;43482;53.334;6.744;2022-08-19T05:46:46;101321.28;;;15.03;100.00
57656;BME280;43482;53.334;6.744;2022-08-19T05:49:13;101311.63;;;15.10;100.00
57656;BME280;43482;53.334;6.744;2022-08-19T05:51:41;101310.63;;;15.19;100.00
57656;BME280;43482;53.334;6.744;2022-08-19T05:54:06;101310.78;;;15.26;100.00
57656;BME280;43482;53.334;6.744;2022-08-19T05:56:34;101315.94;;;15.28;100.00
57656;BME280;43482;53.334;6.744;2022-08-19T05:59:03;101305.66;;;15.16;100.00
57656;BME280;43482;53.334;6.744;2022-08-19T06:01:35;101316.94;;;15.27;100.00
57656;BME280;43482;53.334;6.744;2022-08-19T06:04:01;101321.56;;;15.33;100.00
57656;BME280;43482;53.334;6.744;2022-08-19T06:06:27;101324.72;;;15.45;100.00
57656;BME280;43482;53.334;6.744;2022-08-19T06:08:52;101333.00;;;15.50;100.00
57656;BME280;43482;53.334;6.744;2022-08-19T06:11:33;101330.47;;;15.56;100.00
57656;BME280;43482;53.334;6.744;2022-08-19T06:14:04;101313.34;;;15.59;100.00
57656;BME280;43482;53.334;6.744;2022-08-19T06:16:29;101324.28;;;15.80;100.00
57656;BME280;43482;53.334;6.744;2022-08-19T06:18:58;101316.72;;;16.00;100.00
57656;BME280;43482;53.334;6.744;2022-08-19T06:21:26;101310.47;;;16.16;100.00
57656;BME280;43482;53.334;6.744;2022-08-19T06:23:52;101312.56;;;16.29;100.00
57656;BME280;43482;53.334;6.744;2022-08-19T06:26:19;101332.09;;;16.44;100.00
57656;BME280;43482;53.334;6.744;2022-08-19T06:28:45;101328.31;;;16.62;100.00
57656;BME280;43482;53.334;6.744;2022-08-19T06:31:15;101319.91;;;16.73;100.00
57656;BME280;43482;53.334;6.744;2022-08-19T06:33:42;101318.53;;;16.77;100.00
57656;BME280;43482;53.334;6.744;2022-08-19T06:36:16;101321.38;;;16.99;100.00
57656;BME280;43482;53.334;6.744;2022-08-19T06:38:41;101310.84;;;17.20;100.00
57656;BME280;43482;53.334;6.744;2022-08-19T06:41:07;101314.72;;;17.33;100.00
57656;BME280;43482;53.334;6.744;2022-08-19T06:43:33;101301.75;;;17.44;100.00
57656;BME280;43482;53.334;6.744;2022-08-19T06:45:58;101305.97;;;17.68;100.00
57656;BME280;43482;53.334;6.744;2022-08-19T06:48:24;101304.97;;;17.84;100.00
57656;BME280;43482;53.334;6.744;2022-08-19T06:50:49;101309.97;;;18.09;100.00
57656;BME280;43482;53.334;6.744;2022-08-19T06:53:16;101306.19;;;18.18;100.00
57656;BME280;43482;53.334;6.744;2022-08-19T06:55:44;101309.81;;;18.32;100.00
57656;BME280;43482;53.334;6.744;2022-08-19T06:58:10;101310.41;;;18.70;100.00
57656;BME280;43482;53.334;6.744;2022-08-19T07:00:36;101304.44;;;19.25;100.00
57656;BME280;43482;53.334;6.744;2022-08-19T07:03:01;101305.63;;;19.92;100.00
57656;BME280;43482;53.334;6.744;2022-08-19T07:05:27;101324.41;;;20.67;98.76
57656;BME280;43482;53.334;6.744;2022-08-19T07:07:52;101326.22;;;21.26;94.70
57656;BME280;43482;53.334;6.744;2022-08-19T07:10:18;101318.13;;;21.53;93.23
57656;BME280;43482;53.334;6.744;2022-08-19T07:12:44;101309.06;;;21.54;90.13
57656;BME280;43482;53.334;6.744;2022-08-19T07:15:11;101315.91;;;22.02;89.89
57656;BME280;43482;53.334;6.744;2022-08-19T07:17:37;101317.72;;;22.46;87.96
57656;BME280;43482;53.334;6.744;2022-08-19T07:20:05;101331.28;;;23.33;85.89
57656;BME280;43482;53.334;6.744;2022-08-19T07:22:32;101333.25;;;24.00;81.70
57656;BME280;43482;53.334;6.744;2022-08-19T07:24:59;101321.28;;;24.38;78.24
57656;BME280;43482;53.334;6.744;2022-08-19T07:27:24;101333.88;;;24.44;79.10
57656;BME280;43482;53.334;6.744;2022-08-19T07:29:50;101317.63;;;24.32;78.61
57656;BME280;43482;53.334;6.744;2022-08-19T07:32:15;101336.34;;;25.11;77.47
57656;BME280;43482;53.334;6.744;2022-08-19T07:34:41;101330.03;;;25.29;77.17
57656;BME280;43482;53.334;6.744;2022-08-19T07:37:07;101332.03;;;26.15;73.54
57656;BME280;43482;53.334;6.744;2022-08-19T07:39:35;101334.63;;;25.69;73.45
57656;BME280;43482;53.334;6.744;2022-08-19T07:42:05;101328.31;;;25.63;73.66
57656;BME280;43482;53.334;6.744;2022-08-19T07:44:33;101328.19;;;26.56;72.31
57656;BME280;43482;53.334;6.744;2022-08-19T07:46:59;101339.50;;;27.38;70.84
57656;BME280;43482;53.334;6.744;2022-08-19T07:49:25;101336.97;;;27.75;69.24
57656;BME280;43482;53.334;6.744;2022-08-19T07:51:55;101335.25;;;28.40;64.73
57656;BME280;43482;53.334;6.744;2022-08-19T07:54:23;101341.13;;;28.91;64.73
57656;BME280;43482;53.334;6.744;2022-08-19T07:56:49;101347.09;;;29.31;62.89
57656;BME280;43482;53.334;6.744;2022-08-19T07:59:16;101344.41;;;28.61;63.92
57656;BME280;43482;53.334;6.744;2022-08-19T08:01:43;101347.75;;;29.06;63.80
57656;BME280;43482;53.334;6.744;2022-08-19T08:04:08;101346.66;;;29.54;61.60
57656;BME280;43482;53.334;6.744;2022-08-19T08:06:53;101348.50;;;30.07;59.70
57656;BME280;43482;53.334;6.744;2022-08-19T08:09:40;101347.41;;;29.98;61.35
57656;BME280;43482;53.334;6.744;2022-08-19T08:12:12;101348.50;;;29.97;60.79
57656;BME280;43482;53.334;6.744;2022-08-19T08:14:42;101353.53;;;30.97;58.88
57656;BME280;43482;53.334;6.744;2022-08-19T08:17:09;101354.03;;;31.90;57.76
57656;BME280;43482;53.334;6.744;2022-08-19T08:19:35;101348.91;;;32.67;54.94
57656;BME280;43482;53.334;6.744;2022-08-19T08:22:03;101364.53;;;33.44;53.33
57656;BME280;43482;53.334;6.744;2022-08-19T08:24:29;101358.97;;;33.30;52.57
57656;BME280;43482;53.334;6.744;2022-08-19T08:27:00;101359.03;;;31.72;55.74
57656;BME280;43482;53.334;6.744;2022-08-19T08:29:28;101363.53;;;32.08;56.62
57656;BME280;43482;53.334;6.744;2022-08-19T08:31:54;101357.22;;;33.15;54.39
57656;BME280;43482;53.334;6.744;2022-08-19T08:34:20;101364.50;;;33.92;52.94
57656;BME280;43482;53.334;6.744;2022-08-19T08:36:46;101366.25;;;34.26;52.83
57656;BME280;43482;53.334;6.744;2022-08-19T08:39:17;101358.91;;;35.20;50.63
57656;BME280;43482;53.334;6.744;2022-08-19T08:41:54;101376.59;;;35.83;49.23
57656;BME280;43482;53.334;6.744;2022-08-19T08:44:49;101372.81;;;34.63;48.05
57656;BME280;43482;53.334;6.744;2022-08-19T08:47:18;101371.91;;;34.11;50.91
57656;BME280;43482;53.334;6.744;2022-08-19T08:49:52;101368.94;;;34.64;48.63
57656;BME280;43482;53.334;6.744;2022-08-19T08:52:47;101374.75;;;33.38;53.47
57656;BME280;43482;53.334;6.744;2022-08-19T08:55:17;101368.34;;;35.14;49.90
57656;BME280;43482;53.334;6.744;2022-08-19T09:00:15;101362.91;;;34.62;48.65
57656;BME280;43482;53.334;6.744;2022-08-19T09:02:42;101360.75;;;35.66;47.97
57656;BME280;43482;53.334;6.744;2022-08-19T09:05:09;101374.03;;;36.23;46.02
57656;BME280;43482;53.334;6.744;2022-08-19T09:07:40;101371.19;;;35.22;47.28
57656;BME280;43482;53.334;6.744;2022-08-19T09:13:09;101361.88;;;37.72;44.08
57656;BME280;43482;53.334;6.744;2022-08-19T09:15:45;101353.78;;;37.84;44.51
57656;BME280;43482;53.334;6.744;2022-08-19T09:18:13;101367.06;;;38.69;42.71
57656;BME280;43482;53.334;6.744;2022-08-19T09:20:39;101361.47;;;38.86;40.67
57656;BME280;43482;53.334;6.744;2022-08-19T09:23:04;101362.81;;;36.78;43.33
57656;BME280;43482;53.334;6.744;2022-08-19T09:25:30;101361.44;;;38.13;42.97
57656;BME280;43482;53.334;6.744;2022-08-19T09:27:57;101362.56;;;38.30;41.79
57656;BME280;43482;53.334;6.744;2022-08-19T09:30:27;101364.50;;;38.29;40.44
57656;BME280;43482;53.334;6.744;2022-08-19T09:32:53;101363.72;;;39.02;41.94
57656;BME280;43482;53.334;6.744;2022-08-19T09:35:22;101352.41;;;38.95;40.13
57656;BME280;43482;53.334;6.744;2022-08-19T09:37:48;101342.19;;;36.44;45.15
57656;BME280;43482;53.334;6.744;2022-08-19T09:40:15;101335.66;;;37.25;42.97
57656;BME280;43482;53.334;6.744;2022-08-19T09:42:42;101348.09;;;37.72;42.18
57656;BME280;43482;53.334;6.744;2022-08-19T09:45:09;101351.19;;;37.79;43.85
57656;BME280;43482;53.334;6.744;2022-08-19T09:47:35;101361.44;;;38.39;40.45
57656;BME280;43482;53.334;6.744;2022-08-19T09:50:05;101355.31;;;36.25;42.90
57656;BME280;43482;53.334;6.744;2022-08-19T09:52:32;101351.50;;;35.98;43.28
57656;BME280;43482;53.334;6.744;2022-08-19T09:54:57;101348.53;;;33.99;45.50
57656;BME280;43482;53.334;6.744;2022-08-19T09:57:23;101351.00;;;34.53;47.03
57656;BME280;43482;53.334;6.744;2022-08-19T09:59:48;101341.34;;;37.29;43.79
57656;BME280;43482;53.334;6.744;2022-08-19T10:02:13;101334.31;;;39.06;42.09
57656;BME280;43482;53.334;6.744;2022-08-19T10:04:39;101346.66;;;39.89;39.61
57656;BME280;43482;53.334;6.744;2022-08-19T10:07:23;101346.38;;;38.93;39.34
57656;BME280;43482;53.334;6.744;2022-08-19T10:09:49;101325.63;;;34.80;45.89
57656;BME280;43482;53.334;6.744;2022-08-19T10:12:15;101338.97;;;37.05;42.65
57656;BME280;43482;53.334;6.744;2022-08-19T10:14:40;101335.97;;;37.81;41.60
57656;BME280;43482;53.334;6.744;2022-08-19T10:17:06;101336.34;;;35.51;43.63
57656;BME280;43482;53.334;6.744;2022-08-19T10:19:31;101341.81;;;36.37;42.11
57656;BME280;43482;53.334;6.744;2022-08-19T10:22:03;101352.56;;;35.06;44.79
57656;BME280;43482;53.334;6.744;2022-08-19T10:24:29;101347.81;;;36.17;43.81
57656;BME280;43482;53.334;6.744;2022-08-19T10:26:56;101341.38;;;35.85;44.79
57656;BME280;43482;53.334;6.744;2022-08-19T10:29:21;101334.41;;;36.92;41.65
57656;BME280;43482;53.334;6.744;2022-08-19T10:31:47;101344.38;;;37.67;41.11
57656;BME280;43482;53.334;6.744;2022-08-19T10:34:12;101340.72;;;37.41;41.27
57656;BME280;43482;53.334;6.744;2022-08-19T10:36:38;101328.78;;;37.05;41.12
57656;BME280;43482;53.334;6.744;2022-08-19T10:39:06;101331.97;;;38.78;40.18
57656;BME280;43482;53.334;6.744;2022-08-19T10:41:35;101329.59;;;37.06;44.12
57656;BME280;43482;53.334;6.744;2022-08-19T10:44:07;101319.00;;;38.79;39.84
57656;BME280;43482;53.334;6.744;2022-08-19T10:46:36;101330.91;;;39.39;38.94
57656;BME280;43482;53.334;6.744;2022-08-19T10:49:03;101341.03;;;40.40;40.34
57656;BME280;43482;53.334;6.744;2022-08-19T10:51:29;101330.97;;;41.67;37.03
57656;BME280;43482;53.334;6.744;2022-08-19T10:54:13;101325.47;;;40.14;37.77
57656;BME280;43482;53.334;6.744;2022-08-19T10:56:39;101321.94;;;38.65;38.81
57656;BME280;43482;53.334;6.744;2022-08-19T10:59:25;101327.44;;;39.21;40.96
57656;BME280;43482;53.334;6.744;2022-08-19T11:01:54;101320.75;;;37.09;41.10
57656;BME280;43482;53.334;6.744;2022-08-19T11:04:23;101321.63;;;37.44;44.14
57656;BME280;43482;53.334;6.744;2022-08-19T11:06:48;101310.53;;;39.22;40.95
57656;BME280;43482;53.334;6.744;2022-08-19T11:09:19;101316.75;;;40.58;37.67
57656;BME280;43482;53.334;6.744;2022-08-19T11:11:45;101316.25;;;40.43;38.56
57656;BME280;43482;53.334;6.744;2022-08-19T11:14:14;101320.84;;;40.73;35.66
57656;BME280;43482;53.334;6.744;2022-08-19T11:16:41;101314.88;;;41.72;37.17
57656;BME280;43482;53.334;6.744;2022-08-19T11:19:09;101318.84;;;41.59;37.38
57656;BME280;43482;53.334;6.744;2022-08-19T11:21:38;101328.47;;;40.42;37.51
57656;BME280;43482;53.334;6.744;2022-08-19T11:24:07;101315.31;;;39.04;37.81
57656;BME280;43482;53.334;6.744;2022-08-19T11:26:34;101314.84;;;38.46;42.07
57656;BME280;43482;53.334;6.744;2022-08-19T11:29:00;101322.19;;;39.79;37.26
57656;BME280;43482;53.334;6.744;2022-08-19T11:31:29;101308.59;;;40.74;36.82
57656;BME280;43482;53.334;6.744;2022-08-19T11:34:00;101309.81;;;40.51;37.22
57656;BME280;43482;53.334;6.744;2022-08-19T11:36:27;101305.84;;;40.74;37.18
57656;BME280;43482;53.334;6.744;2022-08-19T11:38:53;101305.63;;;39.28;38.68
57656;BME280;43482;53.334;6.744;2022-08-19T11:41:20;101309.47;;;39.86;39.70
57656;BME280;43482;53.334;6.744;2022-08-19T11:43:48;101299.00;;;39.50;39.67
57656;BME280;43482;53.334;6.744;2022-08-19T11:46:15;101304.03;;;41.27;38.20
57656;BME280;43482;53.334;6.744;2022-08-19T11:48:41;101314.22;;;41.63;37.98
57656;BME280;43482;53.334;6.744;2022-08-19T11:51:10;101304.97;;;42.28;37.96
57656;BME280;43482;53.334;6.744;2022-08-19T11:53:37;101307.63;;;43.20;36.08
57656;BME280;43482;53.334;6.744;2022-08-19T11:56:04;101311.22;;;43.20;36.93
57656;BME280;43482;53.334;6.744;2022-08-19T11:58:30;101305.06;;;42.79;35.54
57656;BME280;43482;53.334;6.744;2022-08-19T12:00:56;101304.56;;;41.20;38.07
57656;BME280;43482;53.334;6.744;2022-08-19T12:03:21;101293.97;;;40.73;37.96
57656;BME280;43482;53.334;6.744;2022-08-19T12:05:47;101296.72;;;40.98;38.65
57656;BME280;43482;53.334;6.744;2022-08-19T12:08:13;101284.22;;;40.55;40.28
57656;BME280;43482;53.334;6.744;2022-08-19T12:10:40;101306.13;;;40.47;40.73
57656;BME280;43482;53.334;6.744;2022-08-19T12:13:08;101297.22;;;40.42;39.54
57656;BME280;43482;53.334;6.744;2022-08-19T12:15:38;101300.34;;;40.53;40.41
57656;BME280;43482;53.334;6.744;2022-08-19T12:18:05;101299.09;;;40.38;38.63
57656;BME280;43482;53.334;6.744;2022-08-19T12:20:31;101288.66;;;38.79;40.90
57656;BME280;43482;53.334;6.744;2022-08-19T12:22:58;101294.66;;;38.81;41.35
57656;BME280;43482;53.334;6.744;2022-08-19T12:25:24;101292.81;;;38.46;42.84
57656;BME280;43482;53.334;6.744;2022-08-19T12:27:50;101294.66;;;38.07;41.75
57656;BME280;43482;53.334;6.744;2022-08-19T12:30:15;101282.28;;;36.10;42.25
57656;BME280;43482;53.334;6.744;2022-08-19T12:32:40;101293.00;;;33.56;48.72
57656;BME280;43482;53.334;6.744;2022-08-19T12:35:07;101294.31;;;33.15;46.77
57656;BME280;43482;53.334;6.744;2022-08-19T12:37:34;101295.88;;;33.22;49.21
57656;BME280;43482;53.334;6.744;2022-08-19T12:39:59;101290.31;;;32.15;48.56
57656;BME280;43482;53.334;6.744;2022-08-19T12:42:25;101292.44;;;32.23;51.72
57656;BME280;43482;53.334;6.744;2022-08-19T12:44:50;101297.97;;;33.06;50.60
57656;BME280;43482;53.334;6.744;2022-08-19T12:47:17;101279.19;;;33.23;50.13
57656;BME280;43482;53.334;6.744;2022-08-19T12:49:42;101292.28;;;32.73;51.99
57656;BME280;43482;53.334;6.744;2022-08-19T12:52:09;101279.91;;;32.81;50.02
57656;BME280;43482;53.334;6.744;2022-08-19T12:54:36;101281.91;;;32.06;50.14